Terminal Aerodrome Forecast
Issued by NWS Sioux Falls, SD

Home | Current Version | Previous Version | Graphics & Text | Print | Product List | Glossary Off
Versions: 1 2 3 4 5 6 7 8 9 10 11 12 13

000
FTUS43 KFSD 240530
TAFFSD
TAF
KFSD 240530Z 2406/2506 21007KT P6SM SKC
     FM241400 27010KT P6SM SKC
     FM241700 31016G24KT P6SM SCT090
     FM241800 32024G39KT P6SM SCT090
     FM242300 31010KT P6SM SKC
     FM250200 29008KT P6SM SKC=

USA.gov is the U.S. government's official web portal to all federal, state and local government web resources and services.